sensor_id;sensor_type;location;lat;lon;timestamp;P1;durP1;ratioP1;P2;durP2;ratioP2
11016;SDS011;54687;50.800;6.772;2023-12-20T00:01:25;5.30;;;4.85;;
11016;SDS011;54687;50.800;6.772;2023-12-20T00:03:52;5.25;;;4.63;;
11016;SDS011;54687;50.800;6.772;2023-12-20T00:06:18;5.03;;;4.63;;
11016;SDS011;54687;50.800;6.772;2023-12-20T00:08:46;4.03;;;3.65;;
11016;SDS011;54687;50.800;6.772;2023-12-20T00:11:13;4.40;;;4.10;;
11016;SDS011;54687;50.800;6.772;2023-12-20T00:13:40;4.25;;;3.95;;
11016;SDS011;54687;50.800;6.772;2023-12-20T00:16:06;4.88;;;4.25;;
11016;SDS011;54687;50.800;6.772;2023-12-20T00:18:33;4.25;;;3.95;;
11016;SDS011;54687;50.800;6.772;2023-12-20T00:20:59;4.90;;;4.20;;
11016;SDS011;54687;50.800;6.772;2023-12-20T00:23:27;4.45;;;4.05;;
11016;SDS011;54687;50.800;6.772;2023-12-20T00:25:55;3.67;;;3.40;;
11016;SDS011;54687;50.800;6.772;2023-12-20T00:28:21;3.92;;;3.63;;
11016;SDS011;54687;50.800;6.772;2023-12-20T00:30:48;4.25;;;3.95;;
11016;SDS011;54687;50.800;6.772;2023-12-20T00:33:15;3.97;;;3.67;;
11016;SDS011;54687;50.800;6.772;2023-12-20T00:35:41;3.70;;;3.40;;
11016;SDS011;54687;50.800;6.772;2023-12-20T00:38:08;4.10;;;3.80;;
11016;SDS011;54687;50.800;6.772;2023-12-20T00:40:36;4.45;;;4.05;;
11016;SDS011;54687;50.800;6.772;2023-12-20T00:43:04;5.57;;;4.40;;
11016;SDS011;54687;50.800;6.772;2023-12-20T00:45:30;4.60;;;4.28;;
11016;SDS011;54687;50.800;6.772;2023-12-20T00:47:57;5.00;;;4.60;;
11016;SDS011;54687;50.800;6.772;2023-12-20T00:50:24;6.00;;;5.50;;
11016;SDS011;54687;50.800;6.772;2023-12-20T00:52:51;5.75;;;5.35;;
11016;SDS011;54687;50.800;6.772;2023-12-20T00:55:17;7.00;;;6.47;;
11016;SDS011;54687;50.800;6.772;2023-12-20T00:57:44;7.57;;;6.97;;
11016;SDS011;54687;50.800;6.772;2023-12-20T01:00:12;7.95;;;6.95;;
11016;SDS011;54687;50.800;6.772;2023-12-20T01:02:39;8.85;;;8.00;;
11016;SDS011;54687;50.800;6.772;2023-12-20T01:05:06;9.30;;;8.50;;
11016;SDS011;54687;50.800;6.772;2023-12-20T01:07:34;9.93;;;9.02;;
11016;SDS011;54687;50.800;6.772;2023-12-20T01:10:01;10.10;;;9.20;;
11016;SDS011;54687;50.800;6.772;2023-12-20T01:12:27;9.57;;;8.68;;
11016;SDS011;54687;50.800;6.772;2023-12-20T01:14:54;10.48;;;9.30;;
11016;SDS011;54687;50.800;6.772;2023-12-20T01:17:22;11.27;;;10.18;;
11016;SDS011;54687;50.800;6.772;2023-12-20T01:19:50;11.10;;;9.95;;
11016;SDS011;54687;50.800;6.772;2023-12-20T01:22:18;11.38;;;10.27;;
11016;SDS011;54687;50.800;6.772;2023-12-20T01:24:48;13.05;;;10.60;;
11016;SDS011;54687;50.800;6.772;2023-12-20T01:27:26;12.27;;;11.05;;
11016;SDS011;54687;50.800;6.772;2023-12-20T01:29:54;14.23;;;11.90;;
11016;SDS011;54687;50.800;6.772;2023-12-20T01:32:23;16.05;;;12.25;;
11016;SDS011;54687;50.800;6.772;2023-12-20T01:34:51;13.55;;;12.15;;
11016;SDS011;54687;50.800;6.772;2023-12-20T01:37:20;15.10;;;12.32;;
11016;SDS011;54687;50.800;6.772;2023-12-20T01:39:50;16.95;;;12.40;;
11016;SDS011;54687;50.800;6.772;2023-12-20T01:42:21;14.27;;;11.80;;
11016;SDS011;54687;50.800;6.772;2023-12-20T01:44:50;15.07;;;12.95;;
11016;SDS011;54687;50.800;6.772;2023-12-20T01:47:20;13.88;;;11.82;;
11016;SDS011;54687;50.800;6.772;2023-12-20T01:49:50;13.35;;;11.70;;
11016;SDS011;54687;50.800;6.772;2023-12-20T01:52:18;13.85;;;10.45;;
11016;SDS011;54687;50.800;6.772;2023-12-20T01:54:46;12.35;;;7.95;;
11016;SDS011;54687;50.800;6.772;2023-12-20T01:57:16;13.38;;;7.03;;
11016;SDS011;54687;50.800;6.772;2023-12-20T01:59:43;14.88;;;7.50;;
11016;SDS011;54687;50.800;6.772;2023-12-20T02:02:11;13.45;;;7.72;;
11016;SDS011;54687;50.800;6.772;2023-12-20T02:04:40;14.35;;;6.68;;
11016;SDS011;54687;50.800;6.772;2023-12-20T02:07:10;14.93;;;6.00;;
11016;SDS011;54687;50.800;6.772;2023-12-20T02:09:39;12.95;;;5.72;;
11016;SDS011;54687;50.800;6.772;2023-12-20T02:12:08;11.52;;;6.03;;
11016;SDS011;54687;50.800;6.772;2023-12-20T02:14:36;10.45;;;4.38;;
11016;SDS011;54687;50.800;6.772;2023-12-20T02:17:02;9.45;;;5.03;;
11016;SDS011;54687;50.800;6.772;2023-12-20T02:19:29;10.70;;;4.60;;
11016;SDS011;54687;50.800;6.772;2023-12-20T02:22:08;9.48;;;4.25;;
11016;SDS011;54687;50.800;6.772;2023-12-20T02:24:35;8.70;;;4.00;;
11016;SDS011;54687;50.800;6.772;2023-12-20T02:27:02;8.18;;;4.43;;
11016;SDS011;54687;50.800;6.772;2023-12-20T02:29:30;8.88;;;4.15;;
11016;SDS011;54687;50.800;6.772;2023-12-20T02:31:57;9.32;;;3.60;;
11016;SDS011;54687;50.800;6.772;2023-12-20T02:34:23;13.52;;;3.53;;
11016;SDS011;54687;50.800;6.772;2023-12-20T02:36:50;11.25;;;3.85;;
11016;SDS011;54687;50.800;6.772;2023-12-20T02:39:18;10.90;;;3.70;;
11016;SDS011;54687;50.800;6.772;2023-12-20T02:41:45;10.57;;;3.75;;
11016;SDS011;54687;50.800;6.772;2023-12-20T02:44:12;12.57;;;4.13;;
11016;SDS011;54687;50.800;6.772;2023-12-20T02:46:38;14.27;;;3.80;;
11016;SDS011;54687;50.800;6.772;2023-12-20T02:49:05;9.32;;;3.85;;
11016;SDS011;54687;50.800;6.772;2023-12-20T02:51:32;8.75;;;3.50;;
11016;SDS011;54687;50.800;6.772;2023-12-20T02:53:58;8.68;;;3.60;;
11016;SDS011;54687;50.800;6.772;2023-12-20T02:56:26;12.80;;;3.45;;
11016;SDS011;54687;50.800;6.772;2023-12-20T02:58:53;10.95;;;3.65;;
11016;SDS011;54687;50.800;6.772;2023-12-20T03:01:19;9.05;;;3.15;;
11016;SDS011;54687;50.800;6.772;2023-12-20T03:03:46;12.55;;;3.47;;
11016;SDS011;54687;50.800;6.772;2023-12-20T03:06:15;11.60;;;4.28;;
11016;SDS011;54687;50.800;6.772;2023-12-20T03:08:43;9.80;;;4.00;;
11016;SDS011;54687;50.800;6.772;2023-12-20T03:11:10;10.05;;;3.53;;
11016;SDS011;54687;50.800;6.772;2023-12-20T03:13:38;9.60;;;3.95;;
11016;SDS011;54687;50.800;6.772;2023-12-20T03:16:07;9.50;;;4.18;;
11016;SDS011;54687;50.800;6.772;2023-12-20T03:18:34;15.85;;;5.00;;
11016;SDS011;54687;50.800;6.772;2023-12-20T03:21:01;7.38;;;3.95;;
11016;SDS011;54687;50.800;6.772;2023-12-20T03:23:29;16.00;;;4.53;;
11016;SDS011;54687;50.800;6.772;2023-12-20T03:25:57;12.60;;;4.63;;
11016;SDS011;54687;50.800;6.772;2023-12-20T03:28:24;12.35;;;4.80;;
11016;SDS011;54687;50.800;6.772;2023-12-20T03:30:52;14.90;;;4.93;;
11016;SDS011;54687;50.800;6.772;2023-12-20T03:33:18;11.35;;;4.97;;
11016;SDS011;54687;50.800;6.772;2023-12-20T03:35:45;14.85;;;4.57;;
11016;SDS011;54687;50.800;6.772;2023-12-20T03:38:12;12.13;;;4.80;;
11016;SDS011;54687;50.800;6.772;2023-12-20T03:40:38;14.43;;;4.30;;
11016;SDS011;54687;50.800;6.772;2023-12-20T03:43:05;8.05;;;4.13;;
11016;SDS011;54687;50.800;6.772;2023-12-20T03:45:32;12.07;;;4.32;;
11016;SDS011;54687;50.800;6.772;2023-12-20T03:47:59;13.63;;;4.57;;
11016;SDS011;54687;50.800;6.772;2023-12-20T03:50:26;14.70;;;4.78;;
11016;SDS011;54687;50.800;6.772;2023-12-20T03:52:53;11.40;;;4.30;;
11016;SDS011;54687;50.800;6.772;2023-12-20T03:55:19;12.63;;;4.80;;
11016;SDS011;54687;50.800;6.772;2023-12-20T03:57:46;10.65;;;4.45;;
11016;SDS011;54687;50.800;6.772;2023-12-20T04:00:13;10.18;;;4.47;;
11016;SDS011;54687;50.800;6.772;2023-12-20T04:02:40;12.52;;;5.10;;
11016;SDS011;54687;50.800;6.772;2023-12-20T04:05:09;11.15;;;4.38;;
11016;SDS011;54687;50.800;6.772;2023-12-20T04:07:36;12.23;;;5.43;;
11016;SDS011;54687;50.800;6.772;2023-12-20T04:10:02;10.73;;;4.75;;
11016;SDS011;54687;50.800;6.772;2023-12-20T04:12:30;12.68;;;4.75;;
11016;SDS011;54687;50.800;6.772;2023-12-20T04:14:57;11.55;;;4.75;;
11016;SDS011;54687;50.800;6.772;2023-12-20T04:17:23;13.45;;;4.80;;
11016;SDS011;54687;50.800;6.772;2023-12-20T04:19:50;13.50;;;5.05;;
11016;SDS011;54687;50.800;6.772;2023-12-20T04:22:18;12.68;;;5.20;;
11016;SDS011;54687;50.800;6.772;2023-12-20T04:24:45;13.90;;;5.30;;
11016;SDS011;54687;50.800;6.772;2023-12-20T04:27:12;16.35;;;5.60;;
11016;SDS011;54687;50.800;6.772;2023-12-20T04:29:38;16.35;;;5.75;;
11016;SDS011;54687;50.800;6.772;2023-12-20T04:32:05;10.63;;;4.75;;
11016;SDS011;54687;50.800;6.772;2023-12-20T04:34:32;12.80;;;5.13;;
11016;SDS011;54687;50.800;6.772;2023-12-20T04:36:58;14.70;;;5.25;;
11016;SDS011;54687;50.800;6.772;2023-12-20T04:39:28;15.75;;;5.53;;
11016;SDS011;54687;50.800;6.772;2023-12-20T04:41:54;13.63;;;5.68;;
11016;SDS011;54687;50.800;6.772;2023-12-20T04:44:21;16.13;;;5.32;;
11016;SDS011;54687;50.800;6.772;2023-12-20T04:46:47;12.00;;;5.38;;
11016;SDS011;54687;50.800;6.772;2023-12-20T04:49:14;14.35;;;5.47;;
11016;SDS011;54687;50.800;6.772;2023-12-20T04:51:41;9.98;;;4.40;;
11016;SDS011;54687;50.800;6.772;2023-12-20T04:54:07;12.40;;;4.68;;
11016;SDS011;54687;50.800;6.772;2023-12-20T04:56:36;14.52;;;6.45;;
11016;SDS011;54687;50.800;6.772;2023-12-20T04:59:03;13.48;;;5.28;;
11016;SDS011;54687;50.800;6.772;2023-12-20T05:01:30;12.48;;;5.72;;
11016;SDS011;54687;50.800;6.772;2023-12-20T05:03:56;10.13;;;5.25;;
11016;SDS011;54687;50.800;6.772;2023-12-20T05:06:23;11.68;;;5.72;;
11016;SDS011;54687;50.800;6.772;2023-12-20T05:08:49;17.63;;;6.20;;
11016;SDS011;54687;50.800;6.772;2023-12-20T05:11:16;14.57;;;5.70;;
11016;SDS011;54687;50.800;6.772;2023-12-20T05:13:44;16.92;;;6.28;;
11016;SDS011;54687;50.800;6.772;2023-12-20T05:16:11;15.02;;;5.50;;
11016;SDS011;54687;50.800;6.772;2023-12-20T05:18:39;14.77;;;6.75;;
11016;SDS011;54687;50.800;6.772;2023-12-20T05:21:05;14.45;;;5.93;;
11016;SDS011;54687;50.800;6.772;2023-12-20T05:23:32;13.52;;;5.38;;
11016;SDS011;54687;50.800;6.772;2023-12-20T05:26:00;17.20;;;6.13;;
11016;SDS011;54687;50.800;6.772;2023-12-20T05:28:26;16.42;;;5.93;;
11016;SDS011;54687;50.800;6.772;2023-12-20T05:30:54;15.45;;;5.30;;
11016;SDS011;54687;50.800;6.772;2023-12-20T05:33:21;14.60;;;5.30;;
11016;SDS011;54687;50.800;6.772;2023-12-20T05:35:47;12.93;;;5.45;;
11016;SDS011;54687;50.800;6.772;2023-12-20T05:38:14;15.13;;;6.00;;
11016;SDS011;54687;50.800;6.772;2023-12-20T05:40:41;19.50;;;5.90;;
11016;SDS011;54687;50.800;6.772;2023-12-20T05:43:07;16.60;;;5.25;;
11016;SDS011;54687;50.800;6.772;2023-12-20T05:45:34;12.45;;;5.18;;
11016;SDS011;54687;50.800;6.772;2023-12-20T05:48:02;16.55;;;5.97;;
11016;SDS011;54687;50.800;6.772;2023-12-20T05:50:29;10.23;;;5.05;;
11016;SDS011;54687;50.800;6.772;2023-12-20T05:52:56;15.02;;;5.28;;
11016;SDS011;54687;50.800;6.772;2023-12-20T05:55:22;15.55;;;5.72;;
11016;SDS011;54687;50.800;6.772;2023-12-20T05:57:49;13.95;;;5.72;;
11016;SDS011;54687;50.800;6.772;2023-12-20T06:00:16;11.40;;;5.50;;
11016;SDS011;54687;50.800;6.772;2023-12-20T06:02:43;13.05;;;5.70;;
11016;SDS011;54687;50.800;6.772;2023-12-20T06:05:12;16.98;;;5.90;;
11016;SDS011;54687;50.800;6.772;2023-12-20T06:07:39;13.98;;;5.70;;
11016;SDS011;54687;50.800;6.772;2023-12-20T06:10:06;15.45;;;6.57;;
11016;SDS011;54687;50.800;6.772;2023-12-20T06:12:33;18.73;;;6.55;;
11016;SDS011;54687;50.800;6.772;2023-12-20T06:15:01;13.73;;;6.10;;
11016;SDS011;54687;50.800;6.772;2023-12-20T06:17:28;16.35;;;6.38;;
11016;SDS011;54687;50.800;6.772;2023-12-20T06:19:56;16.25;;;5.82;;
11016;SDS011;54687;50.800;6.772;2023-12-20T06:22:24;16.27;;;6.55;;
11016;SDS011;54687;50.800;6.772;2023-12-20T06:24:50;19.55;;;6.78;;
11016;SDS011;54687;50.800;6.772;2023-12-20T06:27:17;11.98;;;5.72;;
11016;SDS011;54687;50.800;6.772;2023-12-20T06:29:43;17.75;;;6.03;;
11016;SDS011;54687;50.800;6.772;2023-12-20T06:32:10;15.30;;;6.20;;
11016;SDS011;54687;50.800;6.772;2023-12-20T06:34:37;15.73;;;6.85;;
11016;SDS011;54687;50.800;6.772;2023-12-20T06:37:04;14.93;;;6.43;;
11016;SDS011;54687;50.800;6.772;2023-12-20T06:39:32;16.92;;;5.97;;
11016;SDS011;54687;50.800;6.772;2023-12-20T06:41:59;12.02;;;5.38;;
11016;SDS011;54687;50.800;6.772;2023-12-20T06:44:26;15.43;;;6.28;;
11016;SDS011;54687;50.800;6.772;2023-12-20T06:46:52;13.75;;;5.45;;
11016;SDS011;54687;50.800;6.772;2023-12-20T06:49:19;11.18;;;5.15;;
11016;SDS011;54687;50.800;6.772;2023-12-20T06:51:45;11.55;;;5.07;;
11016;SDS011;54687;50.800;6.772;2023-12-20T06:54:12;13.55;;;5.45;;
11016;SDS011;54687;50.800;6.772;2023-12-20T06:56:40;15.20;;;5.28;;
11016;SDS011;54687;50.800;6.772;2023-12-20T06:59:07;15.20;;;5.63;;
11016;SDS011;54687;50.800;6.772;2023-12-20T07:01:33;15.60;;;5.35;;
11016;SDS011;54687;50.800;6.772;2023-12-20T07:04:00;19.17;;;5.60;;
11016;SDS011;54687;50.800;6.772;2023-12-20T07:06:26;13.27;;;5.30;;
11016;SDS011;54687;50.800;6.772;2023-12-20T07:08:53;11.35;;;5.10;;
11016;SDS011;54687;50.800;6.772;2023-12-20T07:11:20;13.43;;;5.40;;
11016;SDS011;54687;50.800;6.772;2023-12-20T07:13:47;12.13;;;4.50;;
11016;SDS011;54687;50.800;6.772;2023-12-20T07:16:14;20.00;;;5.93;;
11016;SDS011;54687;50.800;6.772;2023-12-20T07:18:41;16.23;;;5.03;;
11016;SDS011;54687;50.800;6.772;2023-12-20T07:21:07;14.73;;;5.55;;
11016;SDS011;54687;50.800;6.772;2023-12-20T07:23:34;15.98;;;5.68;;
11016;SDS011;54687;50.800;6.772;2023-12-20T07:26:01;13.52;;;6.03;;
11016;SDS011;54687;50.800;6.772;2023-12-20T07:28:29;14.60;;;5.43;;
11016;SDS011;54687;50.800;6.772;2023-12-20T07:30:57;10.90;;;4.78;;
11016;SDS011;54687;50.800;6.772;2023-12-20T07:33:23;11.07;;;5.13;;
11016;SDS011;54687;50.800;6.772;2023-12-20T07:35:50;18.70;;;6.25;;
11016;SDS011;54687;50.800;6.772;2023-12-20T07:38:17;11.88;;;4.63;;
11016;SDS011;54687;50.800;6.772;2023-12-20T07:40:44;14.10;;;5.00;;
11016;SDS011;54687;50.800;6.772;2023-12-20T07:43:10;16.52;;;4.95;;
11016;SDS011;54687;50.800;6.772;2023-12-20T07:45:37;16.13;;;5.32;;
11016;SDS011;54687;50.800;6.772;2023-12-20T07:48:06;15.50;;;5.03;;
11016;SDS011;54687;50.800;6.772;2023-12-20T07:50:33;16.55;;;5.35;;
11016;SDS011;54687;50.800;6.772;2023-12-20T07:53:00;10.88;;;5.05;;
11016;SDS011;54687;50.800;6.772;2023-12-20T07:55:26;14.77;;;5.88;;
11016;SDS011;54687;50.800;6.772;2023-12-20T07:57:53;14.27;;;6.15;;
11016;SDS011;54687;50.800;6.772;2023-12-20T08:00:20;14.20;;;5.63;;
11016;SDS011;54687;50.800;6.772;2023-12-20T08:02:46;13.05;;;5.07;;
11016;SDS011;54687;50.800;6.772;2023-12-20T08:05:14;15.10;;;5.30;;
11016;SDS011;54687;50.800;6.772;2023-12-20T08:07:41;14.68;;;5.97;;
11016;SDS011;54687;50.800;6.772;2023-12-20T08:10:07;13.95;;;5.63;;
11016;SDS011;54687;50.800;6.772;2023-12-20T08:12:34;13.25;;;5.65;;
11016;SDS011;54687;50.800;6.772;2023-12-20T08:15:01;18.27;;;5.72;;
11016;SDS011;54687;50.800;6.772;2023-12-20T08:17:29;14.05;;;5.97;;
11016;SDS011;54687;50.800;6.772;2023-12-20T08:19:55;14.73;;;5.35;;
11016;SDS011;54687;50.800;6.772;2023-12-20T08:22:23;16.00;;;5.65;;
11016;SDS011;54687;50.800;6.772;2023-12-20T08:24:50;15.88;;;5.80;;
11016;SDS011;54687;50.800;6.772;2023-12-20T08:27:16;15.45;;;4.90;;
11016;SDS011;54687;50.800;6.772;2023-12-20T08:29:43;15.25;;;4.85;;
11016;SDS011;54687;50.800;6.772;2023-12-20T08:32:10;12.63;;;5.20;;
11016;SDS011;54687;50.800;6.772;2023-12-20T08:34:36;11.70;;;4.53;;
11016;SDS011;54687;50.800;6.772;2023-12-20T08:37:03;14.05;;;5.30;;
11016;SDS011;54687;50.800;6.772;2023-12-20T08:39:31;13.05;;;5.35;;
11016;SDS011;54687;50.800;6.772;2023-12-20T08:41:58;14.98;;;5.20;;
11016;SDS011;54687;50.800;6.772;2023-12-20T08:44:25;10.82;;;4.80;;
11016;SDS011;54687;50.800;6.772;2023-12-20T08:46:51;16.10;;;5.28;;
11016;SDS011;54687;50.800;6.772;2023-12-20T08:49:18;13.90;;;5.68;;
11016;SDS011;54687;50.800;6.772;2023-12-20T08:51:45;13.40;;;5.30;;
11016;SDS011;54687;50.800;6.772;2023-12-20T08:54:11;16.00;;;5.80;;
11016;SDS011;54687;50.800;6.772;2023-12-20T08:56:39;14.23;;;4.38;;
11016;SDS011;54687;50.800;6.772;2023-12-20T08:59:06;14.27;;;5.70;;
11016;SDS011;54687;50.800;6.772;2023-12-20T09:01:33;9.45;;;4.55;;
11016;SDS011;54687;50.800;6.772;2023-12-20T09:03:59;9.93;;;5.10;;
11016;SDS011;54687;50.800;6.772;2023-12-20T09:06:26;13.00;;;5.03;;
11016;SDS011;54687;50.800;6.772;2023-12-20T09:08:52;20.42;;;5.30;;
11016;SDS011;54687;50.800;6.772;2023-12-20T09:11:19;12.65;;;5.20;;
11016;SDS011;54687;50.800;6.772;2023-12-20T09:13:47;12.00;;;4.57;;
11016;SDS011;54687;50.800;6.772;2023-12-20T09:16:13;13.05;;;5.13;;
11016;SDS011;54687;50.800;6.772;2023-12-20T09:18:41;13.90;;;5.65;;
11016;SDS011;54687;50.800;6.772;2023-12-20T09:21:07;14.00;;;4.95;;
11016;SDS011;54687;50.800;6.772;2023-12-20T09:23:34;10.32;;;4.90;;
11016;SDS011;54687;50.800;6.772;2023-12-20T09:26:01;13.32;;;5.57;;
11016;SDS011;54687;50.800;6.772;2023-12-20T09:28:29;15.18;;;5.25;;
11016;SDS011;54687;50.800;6.772;2023-12-20T09:30:57;15.80;;;5.93;;
11016;SDS011;54687;50.800;6.772;2023-12-20T09:33:23;11.98;;;5.20;;
11016;SDS011;54687;50.800;6.772;2023-12-20T09:35:50;11.88;;;5.45;;
11016;SDS011;54687;50.800;6.772;2023-12-20T09:38:16;12.43;;;5.38;;
11016;SDS011;54687;50.800;6.772;2023-12-20T09:40:43;16.20;;;5.50;;
11016;SDS011;54687;50.800;6.772;2023-12-20T09:43:10;12.45;;;4.90;;
11016;SDS011;54687;50.800;6.772;2023-12-20T09:45:40;14.80;;;4.75;;
11016;SDS011;54687;50.800;6.772;2023-12-20T09:48:09;15.25;;;4.53;;
11016;SDS011;54687;50.800;6.772;2023-12-20T09:50:37;11.60;;;4.50;;
11016;SDS011;54687;50.800;6.772;2023-12-20T09:53:04;11.18;;;5.03;;
11016;SDS011;54687;50.800;6.772;2023-12-20T09:55:34;14.18;;;4.72;;
11016;SDS011;54687;50.800;6.772;2023-12-20T09:58:02;12.45;;;4.63;;
11016;SDS011;54687;50.800;6.772;2023-12-20T10:00:29;12.50;;;5.30;;
11016;SDS011;54687;50.800;6.772;2023-12-20T10:02:56;10.98;;;4.72;;
11016;SDS011;54687;50.800;6.772;2023-12-20T10:05:26;15.35;;;4.95;;
11016;SDS011;54687;50.800;6.772;2023-12-20T10:07:54;15.98;;;4.93;;
11016;SDS011;54687;50.800;6.772;2023-12-20T10:10:20;20.00;;;5.45;;
11016;SDS011;54687;50.800;6.772;2023-12-20T10:13:00;11.40;;;4.63;;
11016;SDS011;54687;50.800;6.772;2023-12-20T10:15:28;16.05;;;5.60;;
11016;SDS011;54687;50.800;6.772;2023-12-20T10:17:54;12.82;;;5.38;;
11016;SDS011;54687;50.800;6.772;2023-12-20T10:20:21;19.52;;;5.05;;
11016;SDS011;54687;50.800;6.772;2023-12-20T10:22:49;12.75;;;5.03;;
11016;SDS011;54687;50.800;6.772;2023-12-20T10:25:18;10.43;;;4.35;;
11016;SDS011;54687;50.800;6.772;2023-12-20T10:27:45;12.48;;;4.25;;
11016;SDS011;54687;50.800;6.772;2023-12-20T10:30:13;14.48;;;4.80;;
11016;SDS011;54687;50.800;6.772;2023-12-20T10:32:40;16.50;;;4.93;;
11016;SDS011;54687;50.800;6.772;2023-12-20T10:35:08;12.00;;;4.32;;
11016;SDS011;54687;50.800;6.772;2023-12-20T10:37:35;12.68;;;4.93;;
11016;SDS011;54687;50.800;6.772;2023-12-20T10:40:03;14.70;;;5.22;;
11016;SDS011;54687;50.800;6.772;2023-12-20T10:42:32;15.05;;;5.25;;
11016;SDS011;54687;50.800;6.772;2023-12-20T10:44:59;12.38;;;4.97;;
11016;SDS011;54687;50.800;6.772;2023-12-20T10:47:26;13.38;;;4.75;;
11016;SDS011;54687;50.800;6.772;2023-12-20T10:49:54;15.18;;;4.85;;
11016;SDS011;54687;50.800;6.772;2023-12-20T10:52:22;13.85;;;4.47;;
11016;SDS011;54687;50.800;6.772;2023-12-20T10:54:49;11.25;;;4.28;;
11016;SDS011;54687;50.800;6.772;2023-12-20T10:57:18;15.30;;;5.15;;
11016;SDS011;54687;50.800;6.772;2023-12-20T10:59:45;8.82;;;3.58;;
11016;SDS011;54687;50.800;6.772;2023-12-20T11:02:12;17.65;;;4.32;;
11016;SDS011;54687;50.800;6.772;2023-12-20T11:04:43;10.73;;;4.30;;
11016;SDS011;54687;50.800;6.772;2023-12-20T11:07:17;10.90;;;4.50;;
11016;SDS011;54687;50.800;6.772;2023-12-20T11:09:49;16.42;;;5.20;;
11016;SDS011;54687;50.800;6.772;2023-12-20T11:12:28;12.73;;;4.53;;
11016;SDS011;54687;50.800;6.772;2023-12-20T11:15:02;11.27;;;4.30;;
11016;SDS011;54687;50.800;6.772;2023-12-20T11:17:30;12.13;;;4.88;;
11016;SDS011;54687;50.800;6.772;2023-12-20T11:20:04;9.27;;;4.10;;
11016;SDS011;54687;50.800;6.772;2023-12-20T11:22:33;14.57;;;4.47;;
11016;SDS011;54687;50.800;6.772;2023-12-20T11:25:03;8.77;;;4.38;;
11016;SDS011;54687;50.800;6.772;2023-12-20T11:27:33;12.05;;;4.90;;
11016;SDS011;54687;50.800;6.772;2023-12-20T11:29:59;15.57;;;5.05;;
11016;SDS011;54687;50.800;6.772;2023-12-20T11:32:31;13.45;;;5.05;;
11016;SDS011;54687;50.800;6.772;2023-12-20T11:35:00;11.48;;;4.50;;
11016;SDS011;54687;50.800;6.772;2023-12-20T11:37:42;10.13;;;4.55;;
11016;SDS011;54687;50.800;6.772;2023-12-20T11:40:11;11.30;;;4.80;;
11016;SDS011;54687;50.800;6.772;2023-12-20T11:42:41;12.80;;;4.55;;
11016;SDS011;54687;50.800;6.772;2023-12-20T11:45:08;9.65;;;4.55;;
11016;SDS011;54687;50.800;6.772;2023-12-20T11:47:36;11.35;;;4.78;;
11016;SDS011;54687;50.800;6.772;2023-12-20T11:50:03;13.65;;;5.25;;
11016;SDS011;54687;50.800;6.772;2023-12-20T11:52:30;11.85;;;4.28;;
11016;SDS011;54687;50.800;6.772;2023-12-20T11:54:56;13.35;;;4.63;;
11016;SDS011;54687;50.800;6.772;2023-12-20T11:57:23;9.27;;;3.95;;
11016;SDS011;54687;50.800;6.772;2023-12-20T11:59:52;13.50;;;4.38;;
11016;SDS011;54687;50.800;6.772;2023-12-20T12:02:18;9.50;;;4.10;;
11016;SDS011;54687;50.800;6.772;2023-12-20T12:04:45;10.18;;;3.85;;
11016;SDS011;54687;50.800;6.772;2023-12-20T12:07:15;11.52;;;4.18;;
11016;SDS011;54687;50.800;6.772;2023-12-20T12:09:42;15.25;;;4.30;;
11016;SDS011;54687;50.800;6.772;2023-12-20T12:14:36;16.52;;;3.83;;
11016;SDS011;54687;50.800;6.772;2023-12-20T12:17:05;11.80;;;4.75;;
11016;SDS011;54687;50.800;6.772;2023-12-20T12:19:36;11.63;;;4.18;;
11016;SDS011;54687;50.800;6.772;2023-12-20T12:22:06;14.25;;;4.32;;
11016;SDS011;54687;50.800;6.772;2023-12-20T12:24:36;12.27;;;3.90;;
11016;SDS011;54687;50.800;6.772;2023-12-20T12:27:03;10.55;;;4.40;;
11016;SDS011;54687;50.800;6.772;2023-12-20T12:29:31;7.10;;;3.78;;
11016;SDS011;54687;50.800;6.772;2023-12-20T12:31:58;9.45;;;4.38;;
11016;SDS011;54687;50.800;6.772;2023-12-20T12:34:28;10.85;;;4.78;;
11016;SDS011;54687;50.800;6.772;2023-12-20T12:36:54;12.73;;;4.90;;
11016;SDS011;54687;50.800;6.772;2023-12-20T12:39:22;11.68;;;4.57;;
11016;SDS011;54687;50.800;6.772;2023-12-20T12:41:51;12.95;;;5.05;;
11016;SDS011;54687;50.800;6.772;2023-12-20T12:44:17;14.05;;;5.53;;
11016;SDS011;54687;50.800;6.772;2023-12-20T12:46:44;10.95;;;4.30;;
11016;SDS011;54687;50.800;6.772;2023-12-20T12:49:11;10.48;;;4.38;;
11016;SDS011;54687;50.800;6.772;2023-12-20T12:51:39;10.05;;;4.95;;
11016;SDS011;54687;50.800;6.772;2023-12-20T12:54:06;13.55;;;4.78;;
11016;SDS011;54687;50.800;6.772;2023-12-20T12:56:34;14.38;;;4.97;;
11016;SDS011;54687;50.800;6.772;2023-12-20T12:59:00;13.95;;;4.80;;
11016;SDS011;54687;50.800;6.772;2023-12-20T13:01:27;10.38;;;4.28;;
11016;SDS011;54687;50.800;6.772;2023-12-20T13:03:54;10.95;;;4.53;;
11016;SDS011;54687;50.800;6.772;2023-12-20T13:06:20;15.45;;;5.22;;
11016;SDS011;54687;50.800;6.772;2023-12-20T13:08:48;14.57;;;5.32;;
11016;SDS011;54687;50.800;6.772;2023-12-20T13:11:15;11.38;;;4.78;;
11016;SDS011;54687;50.800;6.772;2023-12-20T13:13:42;11.73;;;4.53;;
11016;SDS011;54687;50.800;6.772;2023-12-20T13:16:08;11.02;;;5.25;;
11016;SDS011;54687;50.800;6.772;2023-12-20T13:18:35;14.55;;;5.57;;
11016;SDS011;54687;50.800;6.772;2023-12-20T13:21:01;12.55;;;5.82;;
11016;SDS011;54687;50.800;6.772;2023-12-20T13:23:28;13.27;;;5.10;;
11016;SDS011;54687;50.800;6.772;2023-12-20T13:25:56;11.98;;;4.88;;
11016;SDS011;54687;50.800;6.772;2023-12-20T13:28:23;11.77;;;4.55;;
11016;SDS011;54687;50.800;6.772;2023-12-20T13:30:49;15.45;;;5.13;;
11016;SDS011;54687;50.800;6.772;2023-12-20T13:33:16;11.02;;;5.22;;
11016;SDS011;54687;50.800;6.772;2023-12-20T13:35:43;11.27;;;4.72;;
11016;SDS011;54687;50.800;6.772;2023-12-20T13:38:09;12.02;;;5.35;;
11016;SDS011;54687;50.800;6.772;2023-12-20T13:40:36;12.55;;;5.00;;
11016;SDS011;54687;50.800;6.772;2023-12-20T13:43:04;10.15;;;5.05;;
11016;SDS011;54687;50.800;6.772;2023-12-20T13:45:31;14.95;;;5.35;;
11016;SDS011;54687;50.800;6.772;2023-12-20T13:47:58;11.77;;;4.85;;
11016;SDS011;54687;50.800;6.772;2023-12-20T13:50:24;14.60;;;4.55;;
11016;SDS011;54687;50.800;6.772;2023-12-20T13:52:52;9.68;;;5.18;;
11016;SDS011;54687;50.800;6.772;2023-12-20T13:55:19;8.15;;;4.28;;
11016;SDS011;54687;50.800;6.772;2023-12-20T13:57:47;11.68;;;4.55;;
11016;SDS011;54687;50.800;6.772;2023-12-20T14:00:15;11.85;;;4.70;;
11016;SDS011;54687;50.800;6.772;2023-12-20T14:02:42;7.97;;;4.30;;
11016;SDS011;54687;50.800;6.772;2023-12-20T14:05:09;13.05;;;4.45;;
11016;SDS011;54687;50.800;6.772;2023-12-20T14:07:36;8.98;;;4.13;;
11016;SDS011;54687;50.800;6.772;2023-12-20T14:10:03;9.02;;;3.83;;
11016;SDS011;54687;50.800;6.772;2023-12-20T14:12:30;9.32;;;4.63;;
11016;SDS011;54687;50.800;6.772;2023-12-20T14:15:00;8.80;;;4.32;;
11016;SDS011;54687;50.800;6.772;2023-12-20T14:17:28;9.23;;;3.50;;
11016;SDS011;54687;50.800;6.772;2023-12-20T14:19:56;9.40;;;4.00;;
11016;SDS011;54687;50.800;6.772;2023-12-20T14:22:23;8.68;;;3.53;;
11016;SDS011;54687;50.800;6.772;2023-12-20T14:24:50;7.30;;;3.45;;
11016;SDS011;54687;50.800;6.772;2023-12-20T14:27:17;6.15;;;3.63;;
11016;SDS011;54687;50.800;6.772;2023-12-20T14:29:46;7.25;;;3.50;;
11016;SDS011;54687;50.800;6.772;2023-12-20T14:32:13;6.57;;;3.90;;
11016;SDS011;54687;50.800;6.772;2023-12-20T14:34:42;5.78;;;3.13;;
11016;SDS011;54687;50.800;6.772;2023-12-20T14:37:08;6.28;;;3.33;;
11016;SDS011;54687;50.800;6.772;2023-12-20T14:39:35;6.50;;;3.42;;